Time;durP1;ratioP1;P1;durP2;ratioP2;P2;SDS_P1;SDS_P2;PMS_P1;PMS_P2;Temp;Humidity;BMP_temperature;BMP_pressure;BME280_temperature;BME280_humidity;BME280_pressure;Samples;Min_cycle;Max_cycle;Signal;HPM_P1;HPM_P2
2021/07/09 00:01:04;;;;;;;9.05;4.75;;;;;;;19.39;74.46;100439.76;1645323;87;21050;-70
2021/07/09 00:03:33;;;;;;;9.25;4.45;;;;;;;19.38;74.45;100436.73;1651416;86;21156;-70
2021/07/09 00:06:02;;;;;;;9.40;5.10;;;;;;;19.40;74.65;100438.64;1645230;86;21025;-69
2021/07/09 00:08:29;;;;;;;12.03;5.35;;;;;;;19.34;74.55;100443.45;1645318;86;21018;-69
2021/07/09 00:10:57;;;;;;;8.68;4.80;;;;;;;19.24;74.61;100438.73;1645283;86;20982;-70
2021/07/09 00:13:23;;;;;;;8.40;4.42;;;;;;;19.16;74.62;100434.80;1613136;89;21059;-70
2021/07/09 00:15:50;;;;;;;8.28;5.03;;;;;;;19.11;74.71;100436.28;1661630;86;20982;-70
2021/07/09 00:18:17;;;;;;;6.22;4.42;;;;;;;19.09;74.74;100438.55;1645107;86;21101;-70
2021/07/09 00:20:44;;;;;;;8.75;4.40;;;;;;;19.06;74.98;100431.46;1645560;86;21038;-69
2021/07/09 00:23:11;;;;;;;9.05;4.87;;;;;;;19.03;75.21;100437.57;1639571;86;21051;-69
2021/07/09 00:25:38;;;;;;;8.25;5.35;;;;;;;18.97;75.23;100443.78;1629498;87;21030;-70
2021/07/09 00:28:04;;;;;;;12.00;5.30;;;;;;;18.89;75.50;100438.98;1636269;87;21040;-69
2021/07/09 00:30:31;;;;;;;10.72;4.83;;;;;;;18.80;76.02;100440.30;1638059;87;20992;-70
2021/07/09 00:32:58;;;;;;;7.80;5.28;;;;;;;18.80;76.34;100432.59;1645296;87;21083;-70
2021/07/09 00:35:24;;;;;;;;;;;;;;;18.83;76.47;100426.45;1654955;87;20983;-69
2021/07/09 00:37:51;;;;;;;10.45;5.40;;;;;;;18.84;76.32;100430.84;1640014;87;20127;-69
2021/07/09 00:40:18;;;;;;;10.03;5.33;;;;;;;18.80;76.64;100425.12;1638323;87;21015;-69
2021/07/09 00:42:44;;;;;;;9.58;4.72;;;;;;;18.81;76.73;100429.50;1646915;87;21047;-69
2021/07/09 00:45:10;;;;;;;;;;;;;;;18.83;76.92;100426.45;1640543;87;21006;-69
2021/07/09 00:47:37;;;;;;;11.35;5.03;;;;;;;18.80;77.09;100418.23;1628919;86;20401;-69
2021/07/09 00:50:05;;;;;;;9.68;5.90;;;;;;;18.77;77.09;100431.83;1625763;87;21027;-70
2021/07/09 00:52:32;;;;;;;9.95;5.30;;;;;;;18.78;76.94;100423.78;1631081;87;21129;-70
2021/07/09 00:54:58;;;;;;;;;;;;;;;18.78;76.83;100421.84;1628146;87;21006;-70
2021/07/09 00:57:26;;;;;;;9.15;5.83;;;;;;;18.82;76.87;100429.77;1632994;87;20141;-70
2021/07/09 00:59:53;;;;;;;10.75;5.47;;;;;;;18.78;77.09;100426.55;1639031;87;21030;-70
2021/07/09 01:02:19;;;;;;;9.85;6.05;;;;;;;18.76;77.23;100425.49;1648062;87;21046;-70
2021/07/09 01:04:48;;;;;;;9.33;5.78;;;;;;;18.72;77.32;100423.66;1652035;87;20967;-70
2021/07/09 01:07:16;;;;;;;8.98;5.62;;;;;;;18.70;77.29;100423.98;1639982;87;21570;-69
2021/07/09 01:09:42;;;;;;;;;;;;;;;18.71;77.27;100420.63;1643322;87;20999;-69
2021/07/09 01:12:09;;;;;;;13.62;5.85;;;;;;;18.73;77.26;100423.36;1628301;87;20424;-70
2021/07/09 01:14:36;;;;;;;10.13;5.80;;;;;;;18.69;77.13;100427.85;1626113;87;21020;-69
2021/07/09 01:17:04;;;;;;;10.68;5.47;;;;;;;18.66;76.99;100418.83;1636808;87;21139;-69
2021/07/09 01:19:31;;;;;;;9.08;5.65;;;;;;;18.63;77.03;100432.41;1637929;87;21057;-70
2021/07/09 01:21:57;;;;;;;11.18;5.45;;;;;;;18.55;77.22;100423.48;1634832;87;21617;-70
2021/07/09 01:24:24;;;;;;;13.78;5.20;;;;;;;18.52;77.19;100420.78;1634990;88;21124;-70
2021/07/09 01:26:50;;;;;;;;;;;;;;;18.52;77.01;100418.58;1635413;86;21031;-69
2021/07/09 01:29:18;;;;;;;11.28;5.70;;;;;;;18.48;76.92;100418.91;1654266;86;20122;-70
2021/07/09 01:31:44;;;;;;;;;;;;;;;18.38;77.20;100416.63;1610929;88;21043;-69
2021/07/09 01:34:10;;;;;;;9.03;5.40;;;;;;;18.40;77.79;100417.13;1597611;90;20139;-70
2021/07/09 01:36:37;;;;;;;13.28;5.45;;;;;;;18.38;78.02;100415.25;1644828;86;21755;-70
2021/07/09 01:39:04;;;;;;;12.73;5.72;;;;;;;18.36;77.83;100412.52;1609310;88;21034;-70
2021/07/09 01:41:31;;;;;;;9.80;5.60;;;;;;;18.27;77.81;100408.86;1597495;90;21111;-69
2021/07/09 01:43:58;;;;;;;8.83;4.92;;;;;;;18.23;77.73;100406.46;1640388;87;21416;-69
2021/07/09 01:46:24;;;;;;;;;;;;;;;18.23;77.65;100416.92;1611717;89;21524;-69
2021/07/09 01:48:50;;;;;;;9.70;4.87;;;;;;;18.24;77.71;100412.23;1598020;89;20441;-70
2021/07/09 01:51:17;;;;;;;;;;;;;;;18.17;77.83;100414.03;1642856;87;21049;-70
2021/07/09 01:53:43;;;;;;;8.73;5.00;;;;;;;18.16;77.81;100417.07;1641940;86;20129;-69
2021/07/09 01:56:09;;;;;;;;;;;;;;;18.08;77.94;100418.59;1602086;88;21051;-69
2021/07/09 01:58:36;;;;;;;10.65;5.25;;;;;;;18.04;78.05;100418.94;1578977;89;20180;-69
2021/07/09 02:01:04;;;;;;;8.95;5.37;;;;;;;17.95;78.79;100419.41;1653907;86;21019;-69
2021/07/09 02:03:30;;;;;;;6.85;4.35;;;;;;;18.00;79.23;100423.42;1657928;86;21091;-69
2021/07/09 02:05:57;;;;;;;6.42;4.50;;;;;;;18.06;79.12;100415.34;1640686;86;21498;-69
2021/07/09 02:08:24;;;;;;;8.70;4.97;;;;;;;18.07;78.78;100421.64;1632692;88;21070;-70
2021/07/09 02:10:50;;;;;;;8.48;4.33;;;;;;;18.07;78.53;100423.02;1632598;88;21048;-70
2021/07/09 02:13:16;;;;;;;;;;;;;;;18.04;78.46;100417.56;1635456;88;21635;-69
2021/07/09 02:15:45;;;;;;;8.95;4.78;;;;;;;18.03;78.49;100417.89;1635481;86;20591;-70
2021/07/09 02:18:14;;;;;;;7.50;4.45;;;;;;;17.92;79.02;100423.33;1642892;86;21549;-70
2021/07/09 02:20:40;;;;;;;7.42;4.83;;;;;;;17.95;79.35;100422.16;1616880;88;20980;-70
2021/07/09 02:23:09;;;;;;;8.33;4.53;;;;;;;17.98;79.10;100427.06;1605494;89;21083;-70
2021/07/09 02:25:37;;;;;;;9.28;4.45;;;;;;;17.97;78.98;100430.92;1629358;87;21002;-70
2021/07/09 02:28:03;;;;;;;7.25;4.60;;;;;;;17.96;79.13;100438.13;1626220;87;21561;-69
2021/07/09 02:30:30;;;;;;;6.28;4.25;;;;;;;17.94;79.28;100431.53;1636836;87;21477;-70
2021/07/09 02:32:56;;;;;;;8.33;4.85;;;;;;;17.99;79.66;100436.14;1634725;87;21114;-70
2021/07/09 02:35:26;;;;;;;7.10;4.15;;;;;;;18.05;79.60;100434.91;1643467;87;21011;-70
2021/07/09 02:37:53;;;;;;;10.75;4.80;;;;;;;18.04;79.44;100438.23;1638754;87;21031;-69
2021/07/09 02:40:23;;;;;;;8.88;4.30;;;;;;;18.02;79.51;100439.11;1625671;88;21058;-70
2021/07/09 02:42:52;;;;;;;9.60;4.80;;;;;;;18.04;79.57;100440.16;1626081;87;21054;-69
2021/07/09 02:45:21;;;;;;;9.15;4.65;;;;;;;18.05;79.68;100443.18;1631221;87;20997;-69
2021/07/09 02:47:49;;;;;;;9.43;4.58;;;;;;;18.07;80.01;100433.48;1626796;87;21689;-69
2021/07/09 02:50:18;;;;;;;10.15;4.22;;;;;;;18.09;80.19;100435.39;1625768;88;21022;-70
2021/07/09 02:52:44;;;;;;;5.85;4.20;;;;;;;18.18;80.28;100436.86;1632300;87;21120;-69
2021/07/09 02:55:12;;;;;;;11.03;4.40;;;;;;;18.27;80.09;100428.16;1627604;87;21499;-70
2021/07/09 02:57:41;;;;;;;8.48;4.50;;;;;;;18.31;79.91;100421.73;1625534;88;21667;-69
2021/07/09 03:00:15;;;;;;;12.60;4.60;;;;;;;18.32;79.77;100426.66;1636795;87;21098;-69
2021/07/09 03:02:41;;;;;;;6.22;3.87;;;;;;;18.31;79.82;100423.11;1628121;87;21106;-69
2021/07/09 03:05:08;;;;;;;7.70;4.00;;;;;;;18.31;79.95;100420.91;1626940;87;21043;-70
2021/07/09 03:07:35;;;;;;;7.20;3.92;;;;;;;18.30;80.00;100415.14;1626308;87;21126;-69
2021/07/09 03:10:07;;;;;;;6.25;3.98;;;;;;;18.33;80.04;100415.90;1630212;87;21019;-70
2021/07/09 03:12:34;;;;;;;6.83;4.22;;;;;;;18.38;80.15;100418.01;1643034;87;21011;-69
2021/07/09 03:15:01;;;;;;;7.37;4.25;;;;;;;18.52;80.53;100417.20;1618991;87;21447;-70
2021/07/09 03:17:27;;;;;;;;;;;;;;;18.74;80.83;100418.66;1641402;87;21126;-70
2021/07/09 03:19:53;;;;;;;6.47;3.77;;;;;;;18.99;80.77;100420.83;1628911;87;20155;-70
2021/07/09 03:22:21;;;;;;;7.45;4.33;;;;;;;19.15;80.71;100415.78;1635414;87;21051;-70
2021/07/09 03:24:48;;;;;;;8.28;4.20;;;;;;;19.37;80.45;100416.62;1654178;86;21051;-70
2021/07/09 03:27:15;;;;;;;9.20;4.50;;;;;;;19.67;79.92;100415.61;1646287;86;21069;-71
2021/07/09 03:29:42;;;;;;;7.25;4.08;;;;;;;19.97;78.98;100414.82;1645619;86;21021;-70
2021/07/09 03:32:09;;;;;;;11.38;4.20;;;;;;;20.18;78.08;100425.56;1639761;86;21062;-70
2021/07/09 03:34:37;;;;;;;9.23;4.17;;;;;;;20.30;77.36;100424.97;1658740;86;21189;-70
2021/07/09 03:37:04;;;;;;;12.55;4.25;;;;;;;20.45;77.05;100414.05;1643079;87;21168;-70
2021/07/09 03:39:30;;;;;;;6.72;3.65;;;;;;;20.72;76.48;100419.34;1642603;86;21053;-70
2021/07/09 03:41:56;;;;;;;8.43;3.67;;;;;;;21.05;75.59;100427.99;1650563;86;21058;-70
2021/07/09 03:44:23;;;;;;;7.70;4.00;;;;;;;21.36;74.52;100429.27;1649370;86;21895;-70
2021/07/09 03:46:50;;;;;;;6.30;4.20;;;;;;;21.68;73.83;100425.98;1644524;87;21061;-70
2021/07/09 03:49:16;;;;;;;7.25;3.95;;;;;;;21.95;72.89;100421.45;1639509;86;21077;-71
2021/07/09 03:51:44;;;;;;;8.55;3.72;;;;;;;22.24;71.87;100425.67;1635315;88;21525;-70
2021/07/09 03:54:12;;;;;;;8.85;3.87;;;;;;;22.46;70.60;100427.94;1635224;87;21022;-70
2021/07/09 03:56:38;;;;;;;7.78;4.00;;;;;;;22.51;69.64;100431.89;1638180;86;21404;-70
2021/07/09 03:59:05;;;;;;;8.93;3.85;;;;;;;22.62;69.47;100433.95;1648178;86;21421;-68
2021/07/09 04:01:31;;;;;;;10.18;4.22;;;;;;;22.80;68.86;100426.37;1633256;86;21068;-71
2021/07/09 04:03:58;;;;;;;7.47;3.80;;;;;;;22.89;68.31;100431.27;1642420;86;20999;-70
2021/07/09 04:06:24;;;;;;;7.97;4.05;;;;;;;23.03;68.08;100431.01;1635767;87;21042;-70
2021/07/09 04:08:50;;;;;;;9.48;4.25;;;;;;;23.19;67.39;100430.09;1637147;86;21022;-70
2021/07/09 04:11:17;;;;;;;5.83;3.72;;;;;;;23.45;66.75;100429.09;1640271;86;21493;-70
2021/07/09 04:13:43;;;;;;;6.83;3.70;;;;;;;23.68;66.57;100431.71;1645185;86;21038;-70
2021/07/09 04:16:09;;;;;;;7.50;4.33;;;;;;;23.94;66.13;100428.09;1635452;86;21017;-70
2021/07/09 04:18:36;;;;;;;8.45;3.87;;;;;;;24.24;65.58;100430.94;1640685;86;21042;-69
2021/07/09 04:21:02;;;;;;;6.90;3.92;;;;;;;24.96;63.47;100429.32;1636915;87;21052;-70
2021/07/09 04:23:29;;;;;;;6.70;3.50;;;;;;;24.96;63.47;100429.32;1652423;86;21051;-68
2021/07/09 04:25:55;;;;;;;6.80;3.58;;;;;;;25.32;63.20;100434.56;1645912;87;21055;-68
2021/07/09 04:28:22;;;;;;;6.37;3.50;;;;;;;25.82;63.66;100436.81;1632482;87;21047;-68
2021/07/09 04:30:49;;;;;;;7.87;3.80;;;;;;;26.25;61.34;100428.45;1630121;87;21034;-68
2021/07/09 04:33:16;;;;;;;9.00;3.72;;;;;;;26.55;60.71;100430.16;1633297;87;21115;-69
2021/07/09 04:35:43;;;;;;;6.12;3.67;;;;;;;27.08;60.39;100434.22;1639185;87;21051;-69
2021/07/09 04:38:09;;;;;;;7.12;3.67;;;;;;;27.60;58.52;100430.95;1633021;87;21066;-68
2021/07/09 04:40:36;;;;;;;8.30;3.52;;;;;;;28.06;57.38;100428.44;1628845;87;21031;-69
2021/07/09 04:43:03;;;;;;;5.72;2.90;;;;;;;28.50;55.60;100427.44;1639054;87;21150;-70
2021/07/09 04:45:29;;;;;;;5.28;2.30;;;;;;;28.87;53.11;100425.44;1638152;87;21538;-70
2021/07/09 04:47:56;;;;;;;4.15;2.00;;;;;;;29.08;47.67;100425.15;1628732;87;21057;-69
2021/07/09 04:50:22;;;;;;;5.37;2.27;;;;;;;29.16;46.10;100426.03;1631027;87;21017;-70
2021/07/09 04:52:48;;;;;;;6.10;2.30;;;;;;;29.26;43.75;100431.59;1634470;87;21105;-69
2021/07/09 04:55:15;;;;;;;6.47;2.40;;;;;;;29.23;43.56;100433.75;1637239;87;21023;-69
2021/07/09 04:57:41;;;;;;;4.95;2.20;;;;;;;29.30;45.28;100435.28;1634825;87;21573;-69
2021/07/09 05:00:09;;;;;;;3.58;1.87;;;;;;;29.59;45.73;100435.82;1646983;87;21015;-69
2021/07/09 05:02:38;;;;;;;8.00;1.95;;;;;;;29.85;42.99;100430.14;1626333;87;21066;-69
2021/07/09 05:05:10;;;;;;;4.97;1.70;;;;;;;29.77;41.43;100433.22;1625908;88;20991;-69
2021/07/09 05:07:37;;;;;;;7.05;2.22;;;;;;;29.65;39.29;100428.70;1599702;90;21019;-70
2021/07/09 05:10:05;;;;;;;3.60;1.70;;;;;;;29.48;38.51;100428.68;1619864;87;20999;-70
2021/07/09 05:12:32;;;;;;;7.28;1.98;;;;;;;29.36;40.09;100428.95;1637690;86;21015;-70
2021/07/09 05:14:58;;;;;;;7.37;2.33;;;;;;;29.51;40.70;100429.31;1630145;86;21524;-69
2021/07/09 05:17:25;;;;;;;3.85;2.12;;;;;;;29.68;39.76;100429.33;1629489;87;21077;-70
2021/07/09 05:19:54;;;;;;;9.30;2.70;;;;;;;29.87;40.65;100431.15;1626629;87;21484;-70
2021/07/09 05:22:21;;;;;;;8.73;2.75;;;;;;;30.09;39.55;100428.18;1620314;87;21082;-70
2021/07/09 05:24:47;;;;;;;6.47;3.30;;;;;;;30.05;38.52;100421.72;1606130;87;21007;-69
2021/07/09 05:27:15;;;;;;;6.62;3.08;;;;;;;29.98;38.52;100423.65;1628590;87;21047;-69
2021/07/09 05:29:41;;;;;;;9.23;3.35;;;;;;;29.80;38.50;100425.43;1625604;88;21018;-70
2021/07/09 05:32:08;;;;;;;9.05;3.20;;;;;;;29.59;38.90;100421.80;1625849;88;21119;-69
2021/07/09 05:34:35;;;;;;;8.15;3.33;;;;;;;29.43;40.62;100421.22;1631147;87;21016;-69
2021/07/09 05:37:02;;;;;;;10.70;3.95;;;;;;;29.44;41.66;100427.05;1633580;87;21069;-70
2021/07/09 05:39:29;;;;;;;10.72;4.08;;;;;;;29.44;40.08;100427.83;1640412;87;21023;-69
2021/07/09 05:41:58;;;;;;;8.75;3.87;;;;;;;29.21;40.01;100419.29;1628742;87;21569;-69
2021/07/09 05:44:24;;;;;;;9.63;4.20;;;;;;;29.15;39.75;100425.25;1633038;87;21601;-70
2021/07/09 05:46:51;;;;;;;11.80;4.72;;;;;;;29.03;40.07;100431.07;1632907;87;21083;-69
2021/07/09 05:49:18;;;;;;;11.10;4.62;;;;;;;28.93;40.67;100428.93;1642125;87;21047;-69
2021/07/09 05:51:44;;;;;;;13.38;4.45;;;;;;;28.85;41.58;100420.20;1652142;87;21485;-69
2021/07/09 05:54:10;;;;;;;10.10;4.40;;;;;;;28.74;42.71;100420.63;1647019;87;21023;-68
2021/07/09 05:56:38;;;;;;;13.50;4.22;;;;;;;28.84;42.79;100423.39;1632177;86;21581;-69
2021/07/09 05:59:04;;;;;;;11.50;4.30;;;;;;;28.96;42.06;100426.77;1640218;87;21055;-70
2021/07/09 06:01:30;;;;;;;10.60;4.53;;;;;;;28.99;41.90;100434.41;1639109;87;21169;-68
2021/07/09 06:03:57;;;;;;;10.08;4.03;;;;;;;28.96;41.52;100431.56;1635100;87;21043;-69
2021/07/09 06:06:23;;;;;;;9.53;3.83;;;;;;;28.99;41.99;100426.59;1634088;87;20985;-70
2021/07/09 06:08:50;;;;;;;10.10;3.72;;;;;;;29.04;41.26;100428.49;1652097;87;21056;-70
2021/07/09 06:19:36;;;;;;;;;;;;;;;28.71;40.57;100412.98;1879442;76;23386;-69
2021/07/09 06:22:03;;;;;;;9.85;2.15;;;;;;;28.80;38.71;100414.13;1832936;77;20765;-69
2021/07/09 06:24:29;;;;;;;6.20;2.20;;;;;;;28.86;38.18;100413.42;1836456;77;21061;-68
2021/07/09 06:26:56;;;;;;;8.05;2.42;;;;;;;28.95;38.21;100420.13;1844066;77;21049;-67
2021/07/09 06:29:23;;;;;;;6.17;1.98;;;;;;;29.01;38.08;100415.24;1839713;78;21037;-66
2021/07/09 06:31:49;;;;;;;4.72;1.90;;;;;;;29.21;39.45;100415.08;1837589;77;21528;-66
2021/07/09 06:34:16;;;;;;;6.60;2.10;;;;;;;29.42;38.09;100404.16;1830246;78;21070;-68
2021/07/09 06:36:42;;;;;;;3.00;1.52;;;;;;;29.65;36.69;100409.06;1794466;80;21559;-67
2021/07/09 06:39:09;;;;;;;6.75;1.90;;;;;;;29.71;35.32;100409.51;1777189;80;21061;-67
2021/07/09 06:41:35;;;;;;;5.03;1.82;;;;;;;29.81;36.87;100411.03;1776768;80;21038;-67
2021/07/09 06:44:01;;;;;;;5.08;1.37;;;;;;;29.99;35.72;100412.64;1776777;80;21517;-67
2021/07/09 06:46:28;;;;;;;4.40;1.20;;;;;;;30.16;36.45;100414.80;1777518;80;21035;-66
2021/07/09 06:48:54;;;;;;;4.03;1.45;;;;;;;30.31;32.62;100410.94;1784274;80;21063;-67
2021/07/09 06:51:21;;;;;;;2.80;1.37;;;;;;;30.28;32.49;100405.28;1772312;80;21578;-68
2021/07/09 06:53:47;;;;;;;7.70;1.42;;;;;;;30.35;33.35;100412.37;1792955;79;21073;-68
2021/07/09 06:56:16;;;;;;;3.00;1.20;;;;;;;30.33;33.26;100408.53;1792284;78;21006;-68
2021/07/09 06:58:43;;;;;;;4.45;1.22;;;;;;;30.28;33.19;100408.09;1796523;80;21100;-64
2021/07/09 07:01:09;;;;;;;3.62;1.20;;;;;;;30.36;34.41;100402.75;1746126;81;21462;-68
2021/07/09 07:03:37;;;;;;;9.95;3.25;;;;;;;30.56;34.05;100401.33;1792573;80;21027;-67
2021/07/09 07:06:04;;;;;;;3.67;1.20;;;;;;;30.67;31.20;100407.02;1782587;80;20986;-67
2021/07/09 07:08:30;;;;;;;4.45;1.67;;;;;;;30.61;29.92;100405.97;1755044;80;21093;-67
2021/07/09 07:10:58;;;;;;;14.03;5.65;;;;;;;30.59;30.43;100402.75;1784642;80;21028;-67
2021/07/09 07:13:25;;;;;;;3.02;1.60;;;;;;;30.56;29.60;100406.95;1756957;80;21109;-68
2021/07/09 07:18:12;;;;;;;7.05;3.50;;;;;;;30.42;29.59;100401.22;1755611;79;23502;-68
2021/07/09 07:20:41;;;;;;;2.58;1.42;;;;;;;30.38;29.70;100405.97;1694076;84;21099;-68
2021/07/09 07:23:09;;;;;;;2.62;1.05;;;;;;;30.42;30.45;100405.43;1712506;82;21042;-68
2021/07/09 07:25:37;;;;;;;3.83;1.27;;;;;;;30.31;30.33;100401.10;1715577;83;21016;-68
2021/07/09 07:28:04;;;;;;;2.83;1.10;;;;;;;30.25;31.03;100393.43;1714271;82;21091;-66
2021/07/09 07:30:30;;;;;;;3.60;1.30;;;;;;;30.18;30.27;100389.16;1704621;83;21528;-67
2021/07/09 07:32:57;;;;;;;3.37;0.80;;;;;;;30.17;30.27;100387.53;1711534;84;21104;-66
2021/07/09 07:35:24;;;;;;;4.83;1.30;;;;;;;30.24;29.77;100392.63;1715917;83;21072;-66
2021/07/09 07:37:51;;;;;;;4.92;2.00;;;;;;;30.22;30.32;100384.38;1710903;83;21113;-66
2021/07/09 07:40:17;;;;;;;6.33;2.22;;;;;;;30.19;30.50;100385.94;1715847;83;21053;-68
2021/07/09 07:42:43;;;;;;;5.03;1.40;;;;;;;30.18;30.54;100387.75;1713809;83;21055;-66
2021/07/09 07:45:11;;;;;;;5.60;1.87;;;;;;;30.06;30.24;100383.23;1704467;83;21109;-66
2021/07/09 07:47:38;;;;;;;6.05;1.72;;;;;;;30.03;31.16;100384.83;1678244;83;21113;-66
2021/07/09 07:50:06;;;;;;;4.15;1.45;;;;;;;30.13;30.45;100388.31;1708852;83;21035;-67
2021/07/09 07:52:32;;;;;;;3.77;1.32;;;;;;;30.11;29.69;100389.91;1704079;83;21036;-68
2021/07/09 07:54:59;;;;;;;6.55;1.40;;;;;;;30.02;29.52;100393.02;1714105;83;21624;-68
2021/07/09 07:57:26;;;;;;;5.85;1.40;;;;;;;30.06;29.78;100386.04;1703455;83;21026;-68
2021/07/09 07:59:52;;;;;;;4.75;1.65;;;;;;;30.17;30.71;100394.55;1703419;84;21493;-68
2021/07/09 08:02:19;;;;;;;45.23;20.15;;;;;;;30.25;30.74;100391.44;1704246;83;21022;-68
2021/07/09 08:04:47;;;;;;;7.08;1.47;;;;;;;30.26;31.00;100391.62;1703869;84;21070;-67
2021/07/09 08:07:15;;;;;;;6.50;2.52;;;;;;;30.25;29.53;100387.81;1710590;83;21618;-67
2021/07/09 08:09:42;;;;;;;3.95;1.20;;;;;;;30.32;30.40;100383.06;1706251;84;20998;-67
2021/07/09 08:12:09;;;;;;;5.17;1.30;;;;;;;30.40;29.98;100376.88;1714212;83;21036;-67
2021/07/09 08:14:37;;;;;;;3.42;1.12;;;;;;;30.42;30.19;100375.94;1708657;83;21478;-68
2021/07/09 08:17:05;;;;;;;3.20;1.20;;;;;;;30.33;29.63;100374.02;1707218;83;21112;-68
2021/07/09 08:19:32;;;;;;;6.47;1.65;;;;;;;30.13;30.59;100373.47;1693634;83;21074;-68
2021/07/09 08:21:58;;;;;;;5.28;1.30;;;;;;;30.07;30.91;100364.61;1695339;84;21109;-66
2021/07/09 08:24:25;;;;;;;7.80;1.50;;;;;;;30.14;31.97;100366.66;1697949;84;21104;-68
2021/07/09 08:26:51;;;;;;;3.83;1.30;;;;;;;30.30;31.67;100367.78;1698207;84;21034;-67
2021/07/09 08:29:18;;;;;;;3.52;1.25;;;;;;;30.46;30.60;100364.14;1697672;84;21104;-67
2021/07/09 08:31:45;;;;;;;2.65;1.10;;;;;;;30.47;31.40;100368.53;1696849;84;21601;-67
2021/07/09 08:34:11;;;;;;;6.60;1.70;;;;;;;30.44;29.85;100357.49;1696430;83;21080;-67
2021/07/09 08:36:38;;;;;;;5.00;1.32;;;;;;;30.40;31.24;100350.20;1677682;85;21118;-67
2021/07/09 08:39:05;;;;;;;5.62;1.50;;;;;;;30.49;31.02;100353.52;1710695;84;21085;-67
2021/07/09 08:41:32;;;;;;;5.60;1.20;;;;;;;30.57;30.43;100342.55;1708241;84;21028;-67
2021/07/09 08:44:00;;;;;;;3.90;1.22;;;;;;;30.64;30.86;100348.20;1708195;82;21580;-67
2021/07/09 08:46:27;;;;;;;2.42;1.10;;;;;;;30.73;30.47;100343.03;1708061;84;21092;-67
2021/07/09 08:48:54;;;;;;;4.83;1.50;;;;;;;30.76;30.32;100337.21;1691244;83;21159;-67
2021/07/09 08:51:21;;;;;;;3.70;1.12;;;;;;;30.66;29.84;100338.77;1690989;84;21078;-67
2021/07/09 08:53:47;;;;;;;2.87;1.00;;;;;;;30.69;30.01;100338.58;1705836;84;21636;-67
2021/07/09 08:56:15;;;;;;;3.80;1.17;;;;;;;30.72;29.80;100335.78;1707891;84;21077;-67
2021/07/09 08:58:42;;;;;;;4.55;1.87;;;;;;;30.71;30.02;100334.79;1708214;84;21041;-67
2021/07/09 09:01:11;;;;;;;4.37;1.30;;;;;;;30.88;31.70;100338.29;1708243;84;21041;-67
2021/07/09 09:03:37;;;;;;;6.85;2.22;;;;;;;30.99;29.77;100334.97;1669909;84;21585;-67
2021/07/09 09:06:04;;;;;;;9.38;5.45;;;;;;;30.98;30.28;100341.19;1701250;84;21000;-67
2021/07/09 09:08:34;;;;;;;21.05;13.45;;;;;;;30.91;29.61;100336.91;1684095;84;21539;-67
2021/07/09 09:11:00;;;;;;;11.18;6.08;;;;;;;30.90;30.82;100342.91;1693008;84;21019;-67
2021/07/09 09:13:34;;;;;;;6.28;1.47;;;;;;;30.92;29.23;100334.90;1708133;82;21052;-67
2021/07/09 09:16:13;;;;;;;3.77;1.10;;;;;;;30.89;29.83;100343.50;1708380;84;20980;-67
2021/07/09 09:18:57;;;;;;;17.25;11.88;;;;;;;30.97;30.79;100340.97;1696905;83;21040;-67
2021/07/09 09:21:25;;;;;;;9.35;5.15;;;;;;;31.14;31.00;100326.80;1721307;82;21027;-67
2021/07/09 09:23:54;;;;;;;5.67;1.92;;;;;;;31.20;29.49;100322.39;1723154;82;21056;-68
2021/07/09 09:26:45;;;;;;;4.87;1.32;;;;;;;31.21;29.30;100318.98;1723194;82;21498;-67
2021/07/09 09:29:35;;;;;;;2.75;1.27;;;;;;;31.28;29.47;100320.41;1723153;83;21074;-67
2021/07/09 09:32:06;;;;;;;2.67;1.10;;;;;;;31.30;31.26;100320.81;1723310;83;21175;-67
2021/07/09 09:34:45;;;;;;;3.22;1.20;;;;;;;31.33;31.55;100314.38;1722808;83;21024;-67
2021/07/09 09:37:19;;;;;;;5.37;1.25;;;;;;;31.27;31.49;100320.20;1722953;82;20989;-67
2021/07/09 09:39:47;;;;;;;3.80;1.20;;;;;;;31.16;29.90;100314.54;1720434;83;20995;-68
2021/07/09 09:42:18;;;;;;;2.65;1.25;;;;;;;31.05;29.96;100311.69;1723488;83;21090;-67
2021/07/09 09:44:58;;;;;;;3.37;1.10;;;;;;;31.09;29.99;100310.30;1722818;83;20977;-68
2021/07/09 09:47:28;;;;;;;3.92;1.20;;;;;;;31.01;30.25;100308.06;1723068;82;21049;-67
2021/07/09 09:49:57;;;;;;;4.67;1.30;;;;;;;30.85;29.19;100317.41;1696180;83;20990;-67
2021/07/09 09:52:40;;;;;;;4.72;1.07;;;;;;;30.85;31.33;100306.76;1714335;82;21654;-67
2021/07/09 09:55:11;;;;;;;3.17;1.20;;;;;;;30.82;29.75;100313.17;1722929;82;21027;-67
2021/07/09 09:57:38;;;;;;;4.40;1.30;;;;;;;30.76;29.26;100303.48;1723416;82;21080;-68
2021/07/09 10:00:07;;;;;;;4.62;1.20;;;;;;;30.81;29.20;100308.16;1723209;82;21476;-67
2021/07/09 10:02:37;;;;;;;5.53;1.17;;;;;;;30.88;29.34;100303.97;1723267;82;21105;-67
2021/07/09 10:05:04;;;;;;;4.60;1.60;;;;;;;31.06;28.80;100302.66;1723166;83;21022;-67
2021/07/09 10:07:35;;;;;;;4.33;1.55;;;;;;;31.23;29.63;100295.48;1724624;82;21492;-66
2021/07/09 10:10:04;;;;;;;3.47;1.20;;;;;;;31.34;30.02;100290.69;1723176;82;21033;-66
2021/07/09 10:12:30;;;;;;;4.15;1.02;;;;;;;31.38;29.81;100288.09;1723551;82;21126;-66
2021/07/09 10:14:57;;;;;;;3.72;1.40;;;;;;;31.29;29.88;100294.69;1721901;83;21454;-66
2021/07/09 10:17:27;;;;;;;3.92;1.47;;;;;;;31.24;29.61;100290.88;1715923;83;20978;-67
2021/07/09 10:19:54;;;;;;;4.25;1.40;;;;;;;31.20;29.16;100285.84;1707273;82;21024;-66
2021/07/09 10:22:20;;;;;;;5.35;1.45;;;;;;;31.13;29.81;100292.03;1705327;83;21033;-65
2021/07/09 10:24:50;;;;;;;4.20;1.40;;;;;;;31.01;29.30;100269.30;1703182;83;21454;-67
2021/07/09 10:27:19;;;;;;;3.33;1.40;;;;;;;31.07;28.57;100281.16;1685618;83;21062;-66
2021/07/09 10:29:47;;;;;;;2.98;1.30;;;;;;;31.08;28.42;100284.19;1705761;83;20991;-65
2021/07/09 10:32:38;;;;;;;6.03;1.32;;;;;;;31.00;28.59;100269.89;1695290;83;21537;-65
2021/07/09 10:35:09;;;;;;;4.05;1.42;;;;;;;30.91;28.95;100272.25;1703184;83;21058;-67
2021/07/09 10:37:36;;;;;;;5.00;1.35;;;;;;;31.01;30.29;100263.08;1695601;83;21110;-67
2021/07/09 10:40:20;;;;;;;3.50;1.40;;;;;;;31.11;29.62;100260.71;1692782;83;21630;-67
2021/07/09 10:42:47;;;;;;;5.28;2.20;;;;;;;31.22;30.68;100256.70;1701878;82;21043;-66
2021/07/09 10:45:22;;;;;;;3.95;1.40;;;;;;;31.34;30.80;100263.37;1704992;82;20995;-66
2021/07/09 10:48:09;;;;;;;4.22;1.45;;;;;;;31.38;30.02;100254.94;1696290;83;21075;-66
2021/07/09 10:50:52;;;;;;;3.87;1.25;;;;;;;31.35;29.84;100255.14;1693868;83;21027;-66
2021/07/09 10:53:23;;;;;;;3.95;1.40;;;;;;;31.34;30.74;100258.34;1700385;83;21073;-66
2021/07/09 10:56:09;;;;;;;2.37;1.45;;;;;;;31.35;30.52;100255.73;1674962;83;21012;-66
2021/07/09 10:58:43;;;;;;;3.12;1.50;;;;;;;31.26;29.65;100249.08;1699484;82;21122;-66
2021/07/09 11:01:18;;;;;;;6.00;1.40;;;;;;;31.18;31.46;100255.10;1694791;82;21505;-67
2021/07/09 11:03:52;;;;;;;5.10;1.65;;;;;;;31.15;30.95;100239.81;1701712;83;21612;-66
2021/07/09 11:06:22;;;;;;;5.95;1.25;;;;;;;31.17;30.11;100244.45;1729348;82;20973;-67
2021/07/09 11:09:01;;;;;;;2.83;1.25;;;;;;;31.15;29.37;100232.78;1701817;81;21086;-66
2021/07/09 11:11:50;;;;;;;2.62;1.25;;;;;;;31.20;29.04;100228.78;1692824;82;21654;-66
2021/07/09 11:14:36;;;;;;;4.45;1.35;;;;;;;31.39;30.71;100240.45;1706196;82;21102;-66
2021/07/09 11:17:16;;;;;;;4.35;1.50;;;;;;;31.59;29.86;100232.48;1681345;84;21071;-67
2021/07/09 11:19:44;;;;;;;2.20;1.25;;;;;;;31.76;30.92;100229.45;1734061;81;20999;-67
2021/07/09 11:22:12;;;;;;;3.52;1.30;;;;;;;31.73;30.86;100229.66;1714400;83;21051;-67
2021/07/09 11:24:55;;;;;;;6.08;1.98;;;;;;;31.70;30.76;100223.44;1726640;81;21640;-67
2021/07/09 11:27:25;;;;;;;5.17;1.77;;;;;;;31.74;30.84;100227.06;1694001;84;21549;-67
2021/07/09 11:29:57;;;;;;;4.28;1.80;;;;;;;31.72;29.02;100224.42;1663261;85;21214;-67
2021/07/09 11:32:21;;;;;;;3.70;1.40;;;;;;;31.65;29.52;100219.61;1676182;85;21652;-67
2021/07/09 11:34:51;;;;;;;11.53;1.82;;;;;;;31.58;29.11;100213.37;1661423;84;21324;-67
2021/07/09 11:37:22;;;;;;;3.50;1.57;;;;;;;31.53;29.32;100210.17;1693496;83;20989;-67
2021/07/09 11:40:00;;;;;;;4.08;1.52;;;;;;;31.48;29.39;100206.31;1705570;83;21094;-67
2021/07/09 11:42:32;;;;;;;3.55;1.47;;;;;;;31.55;30.64;100203.53;1621471;87;21066;-67